createdAt,value
2019-03-30T00:02:17.187Z,12.20
2019-03-30T00:04:47.641Z,12.20
2019-03-30T00:07:18.035Z,12.20
2019-03-30T00:09:48.470Z,12.20
2019-03-30T00:12:18.953Z,12.20
2019-03-30T00:14:49.270Z,12.10
2019-03-30T00:17:19.628Z,12.10
2019-03-30T00:19:50.064Z,12.00
2019-03-30T00:22:20.341Z,12.00
2019-03-30T00:24:50.769Z,12.00
2019-03-30T00:27:21.082Z,12.10
2019-03-30T00:29:51.444Z,12.10
2019-03-30T00:32:21.934Z,11.90
2019-03-30T00:34:52.320Z,12.00
2019-03-30T00:37:22.721Z,11.90
2019-03-30T00:39:53.064Z,12.00
2019-03-30T00:42:23.480Z,12.00
2019-03-30T00:44:53.792Z,11.90
2019-03-30T00:47:24.227Z,12.00
2019-03-30T00:49:54.561Z,12.00
2019-03-30T00:52:24.908Z,11.90
2019-03-30T00:54:55.256Z,11.80
2019-03-30T00:57:25.684Z,11.80
2019-03-30T00:59:56.172Z,11.90
2019-03-30T01:02:26.520Z,11.90
2019-03-30T01:04:57.089Z,11.90
2019-03-30T01:07:27.427Z,11.80
2019-03-30T01:09:57.792Z,11.70
2019-03-30T01:12:28.184Z,11.80
2019-03-30T01:14:58.504Z,11.70
2019-03-30T01:17:29.004Z,11.80
2019-03-30T01:20:03.063Z,11.70
2019-03-30T01:22:31.523Z,11.60
2019-03-30T01:25:01.830Z,11.40
2019-03-30T01:27:32.185Z,11.10
2019-03-30T01:30:02.562Z,11.20
2019-03-30T01:32:35.045Z,11.20
2019-03-30T01:35:05.092Z,11.30
2019-03-30T01:37:35.528Z,11.20
2019-03-30T01:40:06.311Z,11.30
2019-03-30T01:42:36.646Z,11.20
2019-03-30T01:45:08.152Z,11.20
2019-03-30T01:47:38.525Z,11.30
2019-03-30T01:50:17.226Z,11.30
2019-03-30T01:52:42.338Z,11.30
2019-03-30T01:55:12.880Z,11.30
2019-03-30T01:57:43.254Z,11.20
2019-03-30T02:00:14.320Z,11.20
2019-03-30T02:02:45.064Z,11.20
2019-03-30T02:05:15.736Z,11.20
2019-03-30T02:07:46.224Z,11.10
2019-03-30T02:10:26.047Z,11.10
2019-03-30T02:12:56.556Z,10.80
2019-03-30T02:15:26.959Z,10.20
2019-03-30T02:17:57.336Z,9.90
2019-03-30T02:20:37.984Z,10.00
2019-03-30T02:23:08.440Z,10.20
2019-03-30T02:25:38.918Z,10.30
2019-03-30T02:28:09.596Z,10.00
2019-03-30T02:30:40.152Z,10.20
2019-03-30T02:33:10.480Z,9.90
2019-03-30T02:35:40.825Z,9.60
2019-03-30T02:38:11.220Z,9.50
2019-03-30T02:40:41.570Z,9.50
2019-03-30T02:43:11.984Z,9.40
2019-03-30T02:45:42.313Z,9.20
2019-03-30T02:48:12.653Z,9.20
2019-03-30T02:50:49.914Z,9.40
2019-03-30T02:53:15.027Z,9.50
2019-03-30T02:55:45.418Z,9.60
2019-03-30T02:58:15.797Z,9.30
2019-03-30T03:00:46.170Z,9.40
2019-03-30T03:03:16.521Z,9.40
2019-03-30T03:05:46.804Z,9.50
2019-03-30T03:08:17.219Z,9.50
2019-03-30T03:10:47.562Z,9.50
2019-03-30T03:13:17.940Z,9.20
2019-03-30T03:15:48.360Z,9.30
2019-03-30T03:18:23.284Z,9.40
2019-03-30T03:21:06.489Z,9.70
2019-03-30T03:23:25.642Z,9.60
2019-03-30T03:25:56.131Z,9.70
2019-03-30T03:28:26.501Z,9.70
2019-03-30T03:30:56.877Z,9.70
2019-03-30T03:33:27.306Z,9.80
2019-03-30T03:35:57.599Z,9.90
2019-03-30T03:38:27.938Z,9.90
2019-03-30T03:40:58.422Z,9.90
2019-03-30T03:43:28.761Z,9.80
2019-03-30T03:45:59.135Z,9.60
2019-03-30T03:48:29.517Z,9.60
2019-03-30T03:51:03.091Z,9.70
2019-03-30T03:53:34.775Z,9.80
2019-03-30T03:56:06.433Z,9.80
2019-03-30T03:58:37.556Z,9.80
2019-03-30T04:01:08.102Z,9.60
2019-03-30T04:03:39.422Z,9.50
2019-03-30T04:06:09.907Z,9.40
2019-03-30T04:08:41.850Z,9.10
2019-03-30T04:11:13.612Z,9.30
2019-03-30T04:13:47.333Z,9.40
2019-03-30T04:16:17.600Z,9.40
2019-03-30T04:18:48.649Z,9.50
2019-03-30T04:21:19.097Z,9.50
2019-03-30T04:23:53.935Z,9.40
2019-03-30T04:26:21.465Z,9.30
2019-03-30T04:28:51.944Z,9.20
2019-03-30T04:31:22.315Z,9.00
2019-03-30T04:33:52.664Z,9.00
2019-03-30T04:36:22.979Z,9.10
2019-03-30T04:38:53.310Z,9.20
2019-03-30T04:41:23.625Z,9.40
2019-03-30T04:43:54.043Z,9.50
2019-03-30T04:46:24.452Z,9.50
2019-03-30T04:48:54.866Z,9.50
2019-03-30T04:51:25.278Z,9.60
2019-03-30T04:53:55.614Z,9.10
2019-03-30T04:56:26.043Z,8.70
2019-03-30T04:58:56.409Z,8.70
2019-03-30T05:01:26.887Z,8.80
2019-03-30T05:03:57.249Z,8.70
2019-03-30T05:06:27.553Z,8.50
2019-03-30T05:08:57.977Z,8.50
2019-03-30T05:11:28.292Z,8.50
2019-03-30T05:13:58.691Z,8.50
2019-03-30T05:16:28.949Z,8.50
2019-03-30T05:18:59.397Z,8.40
2019-03-30T05:21:31.128Z,8.30
2019-03-30T05:24:01.487Z,8.20
2019-03-30T05:26:31.851Z,8.10
2019-03-30T05:29:02.171Z,8.30
2019-03-30T05:31:32.584Z,8.70
2019-03-30T05:34:05.173Z,8.90
2019-03-30T05:36:35.559Z,8.80
2019-03-30T05:39:06.835Z,8.90
2019-03-30T05:41:37.176Z,9.00
2019-03-30T05:44:07.438Z,9.00
2019-03-30T05:46:38.164Z,8.90
2019-03-30T05:49:08.565Z,8.90
2019-03-30T05:51:38.976Z,8.70
2019-03-30T05:54:09.294Z,8.60
2019-03-30T05:56:39.745Z,8.60
2019-03-30T05:59:10.000Z,8.70
2019-03-30T06:01:40.511Z,8.80
2019-03-30T06:04:10.895Z,8.90
2019-03-30T06:06:41.225Z,9.00
2019-03-30T06:09:11.531Z,9.10
2019-03-30T06:11:41.909Z,9.20
2019-03-30T06:14:12.215Z,9.10
2019-03-30T06:16:42.645Z,8.90
2019-03-30T06:19:13.007Z,9.00
2019-03-30T06:21:43.333Z,9.20
2019-03-30T06:24:13.700Z,9.30
2019-03-30T06:26:44.033Z,9.40
2019-03-30T06:29:14.409Z,9.50
2019-03-30T06:31:46.705Z,9.70
2019-03-30T06:34:16.753Z,9.80
2019-03-30T06:36:47.131Z,10.00
2019-03-30T06:39:18.422Z,10.10
2019-03-30T06:41:48.812Z,10.20
2019-03-30T06:44:19.169Z,10.20
2019-03-30T06:46:49.520Z,10.40
2019-03-30T06:49:19.937Z,10.50
2019-03-30T06:51:50.274Z,10.40
2019-03-30T06:54:20.712Z,10.50
2019-03-30T06:57:09.808Z,10.60
2019-03-30T06:59:40.174Z,10.60
2019-03-30T07:02:11.563Z,10.80
2019-03-30T07:04:41.977Z,10.90
2019-03-30T07:07:12.663Z,11.00
2019-03-30T07:09:43.973Z,11.10
2019-03-30T07:12:15.321Z,11.20
2019-03-30T07:14:47.989Z,11.10
2019-03-30T07:17:18.540Z,11.10
2019-03-30T07:19:51.006Z,11.40
2019-03-30T07:22:21.399Z,11.60
2019-03-30T07:24:51.772Z,11.70
2019-03-30T07:27:22.307Z,11.90
2019-03-30T07:29:52.679Z,12.00
2019-03-30T07:32:23.076Z,12.20
2019-03-30T07:34:53.477Z,12.40
2019-03-30T07:37:23.832Z,12.40
2019-03-30T07:39:54.156Z,12.50
2019-03-30T07:42:24.598Z,12.60
2019-03-30T07:44:54.941Z,12.60
2019-03-30T07:47:25.297Z,12.80
2019-03-30T07:49:55.655Z,13.00
2019-03-30T07:52:26.005Z,13.10
2019-03-30T07:54:56.406Z,13.10
2019-03-30T07:57:26.769Z,13.20
2019-03-30T07:59:57.165Z,13.20
2019-03-30T08:02:27.487Z,13.30
2019-03-30T08:04:57.902Z,13.40
2019-03-30T08:07:28.324Z,13.60
2019-03-30T08:09:58.674Z,13.70
2019-03-30T08:12:29.051Z,13.80
2019-03-30T08:14:59.477Z,13.80
2019-03-30T08:17:29.962Z,13.90
2019-03-30T08:20:00.388Z,14.00
2019-03-30T08:22:30.784Z,13.90
2019-03-30T08:25:01.226Z,14.00
2019-03-30T08:27:31.612Z,14.10
2019-03-30T08:30:01.957Z,14.20
2019-03-30T08:32:32.415Z,14.30
2019-03-30T08:35:02.863Z,14.50
2019-03-30T08:37:33.280Z,14.70
2019-03-30T08:40:03.811Z,14.60
2019-03-30T08:42:34.293Z,14.80
2019-03-30T08:45:04.897Z,14.90
2019-03-30T08:47:35.294Z,15.10
2019-03-30T08:50:06.550Z,15.20
2019-03-30T08:52:37.563Z,15.30
2019-03-30T08:55:08.852Z,15.40
2019-03-30T08:57:39.124Z,15.50
2019-03-30T09:00:09.836Z,15.50
2019-03-30T09:02:40.291Z,15.60
2019-03-30T09:05:11.045Z,15.60
2019-03-30T09:07:41.367Z,15.60
2019-03-30T09:10:14.447Z,15.60
2019-03-30T09:12:44.911Z,15.60
2019-03-30T09:15:16.341Z,15.50
2019-03-30T09:17:46.689Z,15.50
2019-03-30T09:20:17.417Z,15.60
2019-03-30T09:22:47.869Z,15.70
2019-03-30T09:25:18.186Z,15.90
2019-03-30T09:27:48.590Z,16.00
2019-03-30T09:30:19.284Z,16.20
2019-03-30T09:32:49.764Z,16.30
2019-03-30T09:35:20.082Z,16.40
2019-03-30T09:37:50.472Z,16.40
2019-03-30T09:40:20.867Z,16.50
2019-03-30T09:42:51.271Z,16.60
2019-03-30T09:45:21.732Z,16.60
2019-03-30T09:47:52.172Z,16.60
2019-03-30T09:50:22.696Z,16.50
2019-03-30T09:52:53.062Z,16.60
2019-03-30T09:55:26.971Z,16.60
2019-03-30T09:57:55.565Z,16.70
2019-03-30T10:00:25.927Z,16.80
2019-03-30T10:02:56.336Z,16.80
2019-03-30T10:05:26.701Z,16.90
2019-03-30T10:07:57.041Z,16.90
2019-03-30T10:10:27.380Z,16.90
2019-03-30T10:12:57.767Z,16.90
2019-03-30T10:15:28.202Z,17.10
2019-03-30T10:17:58.615Z,17.10
2019-03-30T10:20:28.967Z,17.10
2019-03-30T10:22:59.347Z,17.20
2019-03-30T10:25:29.715Z,17.10
2019-03-30T10:28:00.077Z,17.20
2019-03-30T10:30:30.472Z,17.30
2019-03-30T10:33:00.840Z,17.30
2019-03-30T10:35:31.376Z,17.40
2019-03-30T10:38:01.887Z,17.20
2019-03-30T10:40:32.545Z,17.20
2019-03-30T10:43:02.956Z,17.20
2019-03-30T10:45:33.368Z,17.30
2019-03-30T10:48:03.773Z,17.30
2019-03-30T10:50:36.289Z,17.30
2019-03-30T10:53:06.691Z,17.30
2019-03-30T10:55:37.061Z,17.50
2019-03-30T10:58:07.565Z,17.60
2019-03-30T11:00:41.632Z,17.70
2019-03-30T11:03:12.087Z,17.80
2019-03-30T11:05:42.483Z,17.90
2019-03-30T11:08:12.831Z,18.00
2019-03-30T11:10:43.147Z,18.00
2019-03-30T11:13:13.560Z,18.00
2019-03-30T11:15:43.898Z,18.00
2019-03-30T11:18:14.329Z,18.00
2019-03-30T11:20:45.949Z,18.00
2019-03-30T11:23:16.426Z,18.00
2019-03-30T11:25:46.834Z,18.10
2019-03-30T11:28:17.233Z,18.10
2019-03-30T11:30:47.668Z,18.10
2019-03-30T11:33:17.993Z,18.20
2019-03-30T11:35:48.433Z,18.30
2019-03-30T11:38:18.772Z,18.50
2019-03-30T11:40:49.228Z,18.60
2019-03-30T11:43:19.588Z,18.70
2019-03-30T11:45:50.022Z,18.70
2019-03-30T11:48:20.375Z,18.80
2019-03-30T11:50:50.898Z,18.90
2019-03-30T11:53:21.272Z,19.00
2019-03-30T11:55:51.546Z,19.00
2019-03-30T11:58:21.948Z,19.00
2019-03-30T12:00:52.312Z,18.90
2019-03-30T12:03:22.702Z,18.70
2019-03-30T12:05:53.062Z,18.60
2019-03-30T12:08:23.466Z,18.50
2019-03-30T12:10:53.837Z,18.80
2019-03-30T12:13:24.130Z,18.80
2019-03-30T12:15:54.530Z,18.80
2019-03-30T12:18:24.820Z,18.90
2019-03-30T12:20:55.187Z,18.80
2019-03-30T12:23:25.570Z,18.80
2019-03-30T12:25:56.027Z,18.90
2019-03-30T12:28:26.474Z,18.90
2019-03-30T12:30:56.871Z,18.90
2019-03-30T12:33:27.355Z,19.00
2019-03-30T12:35:57.743Z,19.00
2019-03-30T12:41:33.509Z,18.90
2019-03-30T12:44:03.861Z,18.80
2019-03-30T12:46:34.701Z,18.90
2019-03-30T12:49:05.604Z,19.10
2019-03-30T12:51:35.950Z,19.20
2019-03-30T12:54:06.354Z,19.30
2019-03-30T12:56:39.995Z,19.40
2019-03-30T12:59:10.887Z,19.30
2019-03-30T13:01:56.472Z,19.40
2019-03-30T13:04:32.935Z,19.50
2019-03-30T13:07:03.489Z,19.40
2019-03-30T13:09:34.884Z,19.30
2019-03-30T13:12:05.497Z,19.50
2019-03-30T13:14:36.080Z,19.60
2019-03-30T13:17:06.627Z,19.50
2019-03-30T13:19:37.087Z,19.30
2019-03-30T13:22:07.502Z,19.20
2019-03-30T13:24:37.900Z,19.30
2019-03-30T13:27:08.305Z,19.30
2019-03-30T13:29:38.725Z,19.30
2019-03-30T13:32:09.055Z,19.40
2019-03-30T13:34:39.416Z,19.40
2019-03-30T13:37:17.742Z,19.50
2019-03-30T13:39:48.104Z,19.50
2019-03-30T13:42:19.763Z,19.50
2019-03-30T13:44:50.142Z,19.40
2019-03-30T13:47:20.684Z,19.40
2019-03-30T13:49:51.041Z,19.40
2019-03-30T13:52:21.435Z,19.40
2019-03-30T13:54:51.790Z,19.40
2019-03-30T13:57:22.229Z,19.60
2019-03-30T13:59:52.651Z,19.70
2019-03-30T14:02:22.968Z,19.80
2019-03-30T14:04:53.376Z,19.90
2019-03-30T14:07:23.782Z,19.80
2019-03-30T14:09:54.193Z,19.90
2019-03-30T14:12:24.517Z,19.80
2019-03-30T14:14:54.867Z,19.80
2019-03-30T14:17:25.207Z,19.90
2019-03-30T14:19:55.601Z,19.80
2019-03-30T14:22:25.962Z,19.80
2019-03-30T14:24:56.367Z,19.80
2019-03-30T14:27:26.738Z,19.80
2019-03-30T14:29:57.195Z,19.80
2019-03-30T14:32:27.556Z,19.90
2019-03-30T14:34:57.860Z,19.90
2019-03-30T14:37:28.180Z,19.90
2019-03-30T14:39:58.574Z,19.80
2019-03-30T14:42:29.028Z,19.80
2019-03-30T14:44:59.395Z,19.80
2019-03-30T14:47:29.795Z,19.70
2019-03-30T14:50:00.106Z,19.60
2019-03-30T14:52:30.818Z,19.70
2019-03-30T14:55:01.799Z,19.70
2019-03-30T14:57:32.108Z,19.80
2019-03-30T15:00:02.612Z,19.70
2019-03-30T15:02:32.937Z,19.70
2019-03-30T15:05:03.372Z,19.70
2019-03-30T15:07:33.718Z,19.80
2019-03-30T15:10:04.226Z,19.90
2019-03-30T15:12:34.644Z,20.00
2019-03-30T15:15:05.329Z,20.00
2019-03-30T15:17:35.709Z,19.90
2019-03-30T15:20:07.073Z,19.90
2019-03-30T15:22:37.439Z,20.00
2019-03-30T15:25:08.871Z,20.00
2019-03-30T15:27:39.299Z,19.90
2019-03-30T15:30:10.321Z,19.80
2019-03-30T15:32:40.743Z,19.80
2019-03-30T15:35:11.400Z,19.90
2019-03-30T15:37:41.842Z,19.80
2019-03-30T15:40:12.204Z,19.80
2019-03-30T15:42:42.633Z,19.70
2019-03-30T15:45:13.315Z,19.70
2019-03-30T15:47:43.860Z,19.70
2019-03-30T15:50:14.690Z,19.70
2019-03-30T15:52:45.169Z,19.70
2019-03-30T15:55:15.624Z,19.70
2019-03-30T15:57:46.382Z,19.60
2019-03-30T16:00:17.576Z,19.50
2019-03-30T16:02:48.015Z,19.50
2019-03-30T16:05:18.620Z,19.40
2019-03-30T16:07:48.967Z,19.40
2019-03-30T16:10:19.296Z,19.30
2019-03-30T16:12:49.610Z,19.40
2019-03-30T16:15:19.981Z,19.30
2019-03-30T16:17:50.324Z,19.30
2019-03-30T16:20:20.764Z,19.30
2019-03-30T16:22:51.178Z,19.30
2019-03-30T16:25:21.623Z,19.30
2019-03-30T16:27:51.989Z,19.20
2019-03-30T16:30:22.705Z,19.20
2019-03-30T16:32:53.050Z,19.20
2019-03-30T16:35:23.435Z,19.10
2019-03-30T16:37:53.825Z,19.00
2019-03-30T16:40:24.209Z,19.00
2019-03-30T16:42:54.635Z,18.90
2019-03-30T16:45:24.977Z,18.90
2019-03-30T16:47:55.362Z,18.80
2019-03-30T16:50:25.655Z,18.80
2019-03-30T16:52:56.073Z,18.70
2019-03-30T16:55:26.525Z,18.70
2019-03-30T16:57:56.857Z,18.70
2019-03-30T17:00:28.743Z,18.70
2019-03-30T17:02:59.130Z,18.60
2019-03-30T17:05:29.537Z,18.60
2019-03-30T17:07:59.877Z,18.60
2019-03-30T17:10:30.291Z,18.50
2019-03-30T17:13:00.700Z,18.40
2019-03-30T17:15:31.060Z,18.40
2019-03-30T17:18:01.426Z,18.30
2019-03-30T17:20:32.664Z,18.30
2019-03-30T17:23:03.044Z,18.20
2019-03-30T17:25:33.519Z,18.20
2019-03-30T17:28:06.741Z,18.10
2019-03-30T17:30:36.004Z,18.10
2019-03-30T17:33:06.386Z,18.10
2019-03-30T17:35:36.836Z,18.00
2019-03-30T17:38:07.169Z,17.90
2019-03-30T17:40:37.772Z,17.90
2019-03-30T17:43:08.122Z,17.80
2019-03-30T17:45:38.531Z,17.80
2019-03-30T17:48:08.887Z,17.80
2019-03-30T17:50:39.354Z,17.70
2019-03-30T17:53:09.688Z,17.70
2019-03-30T17:55:40.100Z,17.60
2019-03-30T17:58:13.403Z,17.60
2019-03-30T18:00:42.492Z,17.60
2019-03-30T18:03:12.872Z,17.50
2019-03-30T18:05:43.216Z,17.50
2019-03-30T18:08:13.561Z,17.40
2019-03-30T18:10:43.934Z,17.30
2019-03-30T18:13:14.315Z,17.30
2019-03-30T18:15:44.661Z,17.20
2019-03-30T18:18:15.068Z,17.20
2019-03-30T18:20:45.421Z,17.20
2019-03-30T18:23:15.759Z,17.10
2019-03-30T18:25:46.143Z,17.00
2019-03-30T18:28:26.962Z,17.00
2019-03-30T18:30:48.516Z,17.00
2019-03-30T18:33:18.957Z,17.00
2019-03-30T18:35:49.447Z,16.90
2019-03-30T18:38:20.241Z,16.80
2019-03-30T18:40:50.639Z,16.80
2019-03-30T18:43:21.476Z,16.70
2019-03-30T18:45:51.843Z,16.60
2019-03-30T18:48:22.400Z,16.60
2019-03-30T18:50:52.783Z,16.60
2019-03-30T18:53:23.335Z,16.50
2019-03-30T18:55:53.666Z,16.40
2019-03-30T18:58:24.134Z,16.30
2019-03-30T19:00:54.548Z,16.30
2019-03-30T19:03:24.887Z,16.30
2019-03-30T19:05:55.308Z,16.10
2019-03-30T19:08:25.700Z,16.10
2019-03-30T19:10:56.049Z,16.00
2019-03-30T19:13:26.400Z,15.90
2019-03-30T19:15:56.854Z,15.80
2019-03-30T19:18:27.294Z,15.70
2019-03-30T19:20:57.616Z,15.60
2019-03-30T19:23:27.936Z,15.50
2019-03-30T19:25:59.205Z,15.50
2019-03-30T19:28:29.987Z,15.50
2019-03-30T19:31:00.385Z,15.50
2019-03-30T19:33:30.799Z,15.50
2019-03-30T19:36:01.277Z,15.40
2019-03-30T19:38:31.638Z,15.40
2019-03-30T19:41:01.956Z,15.30
2019-03-30T19:43:32.436Z,15.30
2019-03-30T19:46:02.837Z,15.20
2019-03-30T19:48:36.834Z,15.20
2019-03-30T19:51:06.951Z,15.20
2019-03-30T19:53:37.314Z,15.20
2019-03-30T19:56:07.714Z,15.20
2019-03-30T19:58:39.129Z,15.20
2019-03-30T20:01:09.682Z,15.20
2019-03-30T20:03:40.244Z,15.20
2019-03-30T20:06:10.807Z,15.10
2019-03-30T20:08:41.223Z,15.00
2019-03-30T20:11:11.653Z,14.90
2019-03-30T20:13:42.000Z,14.90
2019-03-30T20:16:13.273Z,14.90
2019-03-30T20:18:43.663Z,14.90
2019-03-30T20:21:14.059Z,15.00
2019-03-30T20:23:44.688Z,14.90
2019-03-30T20:26:15.060Z,14.80
2019-03-30T20:28:45.376Z,14.70
2019-03-30T20:31:15.776Z,14.70
2019-03-30T20:33:46.123Z,14.70
2019-03-30T20:36:16.575Z,14.70
2019-03-30T20:38:47.042Z,14.70
2019-03-30T20:41:17.433Z,14.70
2019-03-30T20:43:47.940Z,14.70
2019-03-30T20:46:18.591Z,14.60
2019-03-30T20:48:48.920Z,14.60
2019-03-30T20:51:19.223Z,14.60
2019-03-30T20:53:49.628Z,14.60
2019-03-30T20:56:19.986Z,14.60
2019-03-30T20:58:50.343Z,14.60
2019-03-30T21:01:20.795Z,14.60
2019-03-30T21:03:51.241Z,14.60
2019-03-30T21:06:21.616Z,14.60
2019-03-30T21:08:51.983Z,14.50
2019-03-30T21:11:22.366Z,14.40
2019-03-30T21:13:52.807Z,14.30
2019-03-30T21:16:23.332Z,14.20
2019-03-30T21:18:53.746Z,14.00
2019-03-30T21:21:24.179Z,14.00
2019-03-30T21:23:54.627Z,14.00
2019-03-30T21:26:28.395Z,13.90
2019-03-30T21:28:57.108Z,13.90
2019-03-30T21:31:27.648Z,13.80
2019-03-30T21:33:58.046Z,13.90
2019-03-30T21:36:28.621Z,13.90
2019-03-30T21:38:59.068Z,13.90
2019-03-30T21:41:29.377Z,13.70
2019-03-30T21:43:59.751Z,13.50
2019-03-30T21:46:30.127Z,13.30
2019-03-30T21:49:00.512Z,13.20
2019-03-30T21:51:30.853Z,13.30
2019-03-30T21:54:01.214Z,13.40
2019-03-30T21:56:31.653Z,13.20
2019-03-30T21:59:01.964Z,13.10
2019-03-30T22:01:32.439Z,13.10
2019-03-30T22:04:03.197Z,13.20
2019-03-30T22:06:33.722Z,13.30
2019-03-30T22:09:06.650Z,13.40
2019-03-30T22:11:37.080Z,13.20
2019-03-30T22:14:07.552Z,13.20
2019-03-30T22:16:38.043Z,13.20
2019-03-30T22:19:08.467Z,13.20
2019-03-30T22:21:38.867Z,13.30
2019-03-30T22:24:09.209Z,13.40
2019-03-30T22:26:39.626Z,13.40
2019-03-30T22:29:10.025Z,13.40
2019-03-30T22:31:40.303Z,13.10
2019-03-30T22:34:10.664Z,13.20
2019-03-30T22:36:41.090Z,13.20
2019-03-30T22:39:11.495Z,13.10
2019-03-30T22:41:41.956Z,12.90
2019-03-30T22:44:12.365Z,12.90
2019-03-30T22:46:42.666Z,12.90
2019-03-30T22:49:13.215Z,12.70
2019-03-30T22:51:43.544Z,12.90
2019-03-30T22:54:13.929Z,12.90
2019-03-30T22:56:44.288Z,12.90
2019-03-30T22:59:14.724Z,12.80
2019-03-30T23:01:45.130Z,12.90
2019-03-30T23:04:15.683Z,12.80
2019-03-30T23:06:46.062Z,12.80
2019-03-30T23:09:16.372Z,12.80
2019-03-30T23:11:46.668Z,12.80
2019-03-30T23:14:17.051Z,12.80
2019-03-30T23:16:47.475Z,13.00
2019-03-30T23:19:17.909Z,13.00
2019-03-30T23:21:48.239Z,13.00
2019-03-30T23:24:18.648Z,13.00
2019-03-30T23:26:48.979Z,13.00
2019-03-30T23:29:19.357Z,12.90
2019-03-30T23:31:49.788Z,12.90
2019-03-30T23:34:20.057Z,12.90
2019-03-30T23:36:50.465Z,12.90
2019-03-30T23:39:20.821Z,12.90
2019-03-30T23:41:51.227Z,12.90
2019-03-30T23:44:21.690Z,12.80
2019-03-30T23:46:52.149Z,12.80
2019-03-30T23:49:22.449Z,12.60
2019-03-30T23:51:52.807Z,12.50
2019-03-30T23:54:23.128Z,12.40
2019-03-30T23:56:53.444Z,11.80
2019-03-30T23:59:23.862Z,11.70
